Time;durP1;ratioP1;P1;durP2;ratioP2;P2;SDS_P1;SDS_P2;PMS_P1;PMS_P2;Temp;Humidity;BMP_temperature;BMP_pressure;BME280_temperature;BME280_humidity;BME280_pressure;Samples;Min_cycle;Max_cycle;Signal;HPM_P1;HPM_P2
2023/10/12 00:00:29;;;;;;;20.83;12.38;;;;;;;17.07;83.26;101056.25;5100212;28;20043;-66
2023/10/12 00:02:58;;;;;;;19.73;12.80;;;;;;;17.11;83.24;101071.13;5104382;28;20044;-66
2023/10/12 00:05:27;;;;;;;24.80;13.25;;;;;;;17.05;84.69;101070.81;5105457;28;20075;-66
2023/10/12 00:07:55;;;;;;;23.13;14.05;;;;;;;17.07;84.95;101079.59;5103981;28;20028;-66
2023/10/12 00:10:21;;;;;;;21.70;13.43;;;;;;;17.05;85.72;101086.94;5099518;28;20027;-66
2023/10/12 00:12:50;;;;;;;21.25;13.38;;;;;;;17.08;85.87;101087.53;5101303;28;20028;-66
2023/10/12 00:18:14;;;;;;;23.95;13.68;;;;;;;17.09;86.15;101093.75;5108408;28;20042;-66
2023/10/12 00:20:43;;;;;;;23.40;14.13;;;;;;;17.03;86.96;101085.25;5106133;28;20032;-66
2023/10/12 00:23:14;;;;;;;23.55;14.00;;;;;;;17.03;87.99;101087.09;5110307;28;20340;-66
2023/10/12 00:25:47;;;;;;;25.63;15.13;;;;;;;17.00;88.35;101095.38;5087210;28;20031;-66
2023/10/12 00:28:20;;;;;;;23.75;15.13;;;;;;;17.01;88.54;101095.28;5091975;28;20027;-66
2023/10/12 00:30:50;;;;;;;25.42;15.82;;;;;;;16.96;89.42;101092.13;5111260;28;20023;-66
2023/10/12 00:33:17;;;;;;;24.40;14.60;;;;;;;16.96;89.75;101096.66;5091079;28;20038;-66
2023/10/12 00:35:48;;;;;;;23.23;15.43;;;;;;;16.91;90.94;101097.06;5110889;28;20470;-66
2023/10/12 00:38:23;;;;;;;23.27;15.68;;;;;;;16.95;91.39;101103.03;5093000;28;20111;-66
2023/10/12 00:40:57;;;;;;;23.65;16.35;;;;;;;16.92;92.39;101109.50;5110702;28;20490;-66
2023/10/12 00:43:28;;;;;;;25.65;16.38;;;;;;;16.92;92.69;101122.09;5105658;28;20032;-66
2023/10/12 00:45:53;;;;;;;26.55;19.55;;;;;;;16.89;93.83;101123.19;5105413;28;20027;-66
2023/10/12 00:48:20;;;;;;;23.35;17.10;;;;;;;16.85;94.34;101123.59;5105105;28;20478;-66
2023/10/12 00:50:48;;;;;;;30.00;17.77;;;;;;;16.80;95.39;101129.38;5103953;28;20024;-66
2023/10/12 00:53:22;;;;;;;28.88;18.60;;;;;;;16.80;95.71;101132.03;5108725;28;20077;-66
2023/10/12 00:55:48;;;;;;;26.95;17.92;;;;;;;16.78;96.89;101123.25;5105116;28;20016;-66
2023/10/12 00:58:14;;;;;;;25.45;18.92;;;;;;;16.66;97.38;101118.91;5110939;28;20081;-66
2023/10/12 01:00:45;;;;;;;29.50;20.05;;;;;;;16.74;98.15;101133.38;5079858;28;20028;-66
2023/10/12 01:08:43;;;;;;;33.33;20.52;;;;;;;16.54;100.00;101113.56;5085882;28;20560;-66
2023/10/12 01:11:17;;;;;;;32.38;21.58;;;;;;;16.56;100.00;101124.19;5100650;28;20035;-66
2023/10/12 01:13:43;;;;;;;29.33;21.73;;;;;;;16.51;100.00;101123.72;5112666;28;20031;-66
2023/10/12 01:16:20;;;;;;;30.80;21.77;;;;;;;16.40;100.00;101116.56;5106901;28;20493;-66
2023/10/12 01:18:45;;;;;;;31.90;23.13;;;;;;;16.46;100.00;101137.53;5109743;28;20397;-66
2023/10/12 01:21:14;;;;;;;29.23;21.35;;;;;;;16.43;100.00;101140.47;5112340;28;20019;-66
2023/10/12 01:23:50;;;;;;;34.15;22.48;;;;;;;16.43;100.00;101136.94;5110750;28;20520;-66
2023/10/12 01:26:15;;;;;;;31.05;23.88;;;;;;;16.40;100.00;101121.06;5108863;28;20386;-66
2023/10/12 01:28:45;;;;;;;36.80;22.90;;;;;;;16.46;100.00;101129.47;5111963;28;20024;-66
2023/10/12 01:31:10;;;;;;;32.83;23.17;;;;;;;16.49;100.00;101120.31;5101086;28;20048;-66
2023/10/12 01:33:38;;;;;;;31.02;22.52;;;;;;;16.37;100.00;101115.97;5106059;28;20020;-66
2023/10/12 01:36:04;;;;;;;30.45;21.83;;;;;;;16.34;100.00;101114.38;5105156;28;20474;-66
2023/10/12 01:38:36;;;;;;;34.30;23.55;;;;;;;16.31;100.00;101096.69;5093358;28;20026;-66
2023/10/12 01:41:09;;;;;;;31.08;22.80;;;;;;;16.39;100.00;101090.69;5112647;28;20055;-66
2023/10/12 01:43:35;;;;;;;29.17;23.63;;;;;;;16.32;100.00;101076.94;5111896;28;20050;-66
2023/10/12 01:46:07;;;;;;;32.92;23.10;;;;;;;16.41;100.00;101086.03;5105583;28;20077;-66
2023/10/12 01:48:36;;;;;;;31.98;23.70;;;;;;;16.41;100.00;101088.72;5093992;28;20081;-66
2023/10/12 01:51:09;;;;;;;37.28;23.83;;;;;;;16.36;100.00;101080.22;5107676;28;20023;-66
2023/10/12 01:53:40;;;;;;;31.73;23.25;;;;;;;16.34;100.00;101101.81;5109304;28;20032;-66
2023/10/12 01:56:09;;;;;;;30.98;23.17;;;;;;;16.38;100.00;101106.91;5099355;28;20479;-65
2023/10/12 01:58:38;;;;;;;32.67;23.40;;;;;;;16.40;100.00;101103.13;5110043;28;20032;-66
2023/10/12 02:01:07;;;;;;;30.40;22.80;;;;;;;16.31;100.00;101090.47;5091655;28;20115;-66
2023/10/12 02:03:33;;;;;;;;;;;;;;;16.48;100.00;101105.19;5081098;28;20019;-66
2023/10/12 02:05:59;;;;;;;32.15;23.70;;;;;;;16.24;100.00;101089.31;5109164;28;19934;-66
2023/10/12 02:08:32;;;;;;;30.60;24.65;;;;;;;16.20;100.00;101079.78;5110720;28;20020;-66
2023/10/12 02:13:51;;;;;;;33.70;24.65;;;;;;;16.13;100.00;101100.91;5057273;28;20112;-66
2023/10/12 02:16:31;;;;;;;35.20;25.73;;;;;;;16.08;100.00;101106.66;5108597;28;20062;-66
2023/10/12 02:19:04;;;;;;;33.30;25.52;;;;;;;16.13;100.00;101107.13;5093155;28;20019;-66
2023/10/12 02:21:40;;;;;;;33.90;25.02;;;;;;;16.09;100.00;101113.75;5110101;28;20055;-66
2023/10/12 02:26:37;;;;;;;30.92;26.05;;;;;;;16.00;100.00;101094.84;5105680;28;20105;-66
2023/10/12 02:31:38;;;;;;;31.65;26.63;;;;;;;15.94;100.00;101084.63;5093635;28;20123;-66
2023/10/12 02:34:05;;;;;;;30.65;26.45;;;;;;;15.91;100.00;101058.88;5087099;28;20150;-66
2023/10/12 02:36:30;;;;;;;29.48;25.23;;;;;;;15.92;100.00;101057.94;5086724;28;20020;-66
2023/10/12 02:39:10;;;;;;;32.53;25.13;;;;;;;15.93;100.00;101054.25;5110384;28;20032;-66
2023/10/12 02:41:35;;;;;;;;;;;;;;;16.10;100.00;101067.13;5108796;28;20028;-66
2023/10/12 02:44:12;;;;;;;31.15;24.73;;;;;;;15.89;100.00;101075.13;5113230;28;20366;-66
2023/10/12 02:46:44;;;;;;;31.95;25.35;;;;;;;15.93;100.00;101075.72;5107124;28;20106;-66
2023/10/12 02:49:10;;;;;;;30.83;25.40;;;;;;;15.94;100.00;101061.31;5102538;28;20027;-66
2023/10/12 02:51:39;;;;;;;31.85;25.58;;;;;;;15.84;100.00;101058.53;5111082;28;20019;-66
2023/10/12 02:54:04;;;;;;;31.17;24.60;;;;;;;15.88;100.00;101060.00;5112598;28;20076;-66
2023/10/12 02:56:31;;;;;;;27.00;23.67;;;;;;;15.92;100.00;101057.94;5108452;28;20067;-66
2023/10/12 02:59:02;;;;;;;29.20;25.13;;;;;;;15.82;100.00;101054.28;5090007;28;20398;-66
2023/10/12 03:01:29;;;;;;;30.35;24.67;;;;;;;15.83;100.00;101056.00;5110832;28;20508;-66
2023/10/12 03:03:55;;;;;;;28.85;25.23;;;;;;;15.82;100.00;101059.63;5086615;28;20028;-66
2023/10/12 03:06:23;;;;;;;30.35;25.50;;;;;;;15.84;100.00;101063.06;5107614;28;20020;-66
2023/10/12 03:11:28;;;;;;;28.33;23.90;;;;;;;15.80;100.00;101056.25;5098536;28;20034;-66
2023/10/12 03:16:49;;;;;;;29.85;23.33;;;;;;;15.73;100.00;101050.50;5083232;28;20486;-66
2023/10/12 03:19:18;;;;;;;27.55;22.90;;;;;;;15.76;100.00;101066.34;5094002;28;20028;-66
2023/10/12 03:21:52;;;;;;;27.02;23.80;;;;;;;15.72;100.00;101070.28;5108998;28;20077;-66
2023/10/12 03:24:43;;;;;;;31.23;24.13;;;;;;;15.65;100.00;101061.00;5106755;28;20055;-66
2023/10/12 03:27:13;;;;;;;27.63;23.13;;;;;;;15.55;100.00;101055.50;5106396;28;20494;-66
2023/10/12 03:29:43;;;;;;;32.03;23.48;;;;;;;15.65;100.00;101059.16;5109821;28;20027;-66
2023/10/12 03:32:11;;;;;;;;;;;;;;;15.76;100.00;101055.63;5110105;28;20043;-66
2023/10/12 03:37:14;;;;;;;26.42;21.20;;;;;;;15.61;100.00;101051.50;5105513;28;20535;-66
2023/10/12 03:42:41;;;;;;;26.63;22.08;;;;;;;15.69;100.00;101051.75;5108994;28;20567;-66
2023/10/12 03:45:24;;;;;;;25.05;21.88;;;;;;;15.63;100.00;101066.47;5098670;28;20119;-66
2023/10/12 03:50:58;;;;;;;24.92;20.20;;;;;;;15.59;100.00;101077.59;5103075;28;20568;-66
2023/10/12 03:53:26;;;;;;;28.30;21.58;;;;;;;15.58;100.00;101066.00;5106819;28;20035;-65
2023/10/12 03:55:57;;;;;;;24.38;19.77;;;;;;;15.61;100.00;101078.28;5104356;28;20035;-66
2023/10/12 03:58:24;;;;;;;25.73;19.58;;;;;;;15.61;100.00;101072.94;5106391;28;20044;-66
2023/10/12 04:01:07;;;;;;;27.30;20.23;;;;;;;15.54;100.00;101069.91;5111782;28;20099;-66
2023/10/12 04:03:40;;;;;;;26.13;19.98;;;;;;;15.57;100.00;101085.75;5102071;28;20049;-66
2023/10/12 04:06:22;;;;;;;22.77;19.17;;;;;;;15.55;100.00;101086.84;5106348;28;20084;-67
2023/10/12 04:08:53;;;;;;;24.58;19.67;;;;;;;15.53;100.00;101089.66;5108132;28;20051;-66
2023/10/12 04:19:02;;;;;;;25.67;21.55;;;;;;;15.54;100.00;101104.75;5111325;28;20036;-66
2023/10/12 04:21:35;;;;;;;26.80;22.30;;;;;;;15.56;100.00;101097.47;5109221;28;20092;-66
2023/10/12 04:27:00;;;;;;;24.20;21.08;;;;;;;15.60;100.00;101096.22;5099815;28;20061;-66
2023/10/12 04:29:30;;;;;;;26.02;21.40;;;;;;;15.58;100.00;101086.59;5107729;28;20027;-66
2023/10/12 04:31:57;;;;;;;27.75;20.38;;;;;;;15.53;100.00;101111.09;5107794;28;20023;-66
2023/10/12 04:34:35;;;;;;;29.20;20.75;;;;;;;15.61;100.00;101105.97;5076562;28;20379;-66
2023/10/12 04:37:11;;;;;;;23.55;20.70;;;;;;;15.51;100.00;101096.13;5111522;28;20073;-66
2023/10/12 04:39:37;;;;;;;26.65;21.52;;;;;;;15.56;100.00;101096.56;5105073;28;20039;-66
2023/10/12 04:42:20;;;;;;;25.73;21.67;;;;;;;15.56;100.00;101093.91;5112509;28;20398;-66
2023/10/12 04:45:02;;;;;;;24.50;20.38;;;;;;;15.48;100.00;101091.84;5103842;28;20497;-66
2023/10/12 04:47:30;;;;;;;25.27;19.55;;;;;;;15.51;100.00;101099.66;5108881;28;20077;-66
2023/10/12 04:49:57;;;;;;;25.08;20.90;;;;;;;15.43;100.00;101096.72;5106213;28;20028;-66
2023/10/12 04:52:32;;;;;;;24.45;20.58;;;;;;;15.44;100.00;101114.50;5111736;28;20150;-66
2023/10/12 04:55:06;;;;;;;25.95;20.25;;;;;;;15.42;100.00;101114.63;5088292;28;20028;-66
2023/10/12 04:57:37;;;;;;;26.10;19.60;;;;;;;15.46;100.00;101099.16;5110326;28;20081;-66
2023/10/12 05:00:24;;;;;;;27.30;19.67;;;;;;;15.44;100.00;101104.66;5091838;28;20383;-66
2023/10/12 05:07:54;;;;;;;25.75;20.23;;;;;;;15.44;100.00;101114.50;5110428;28;20030;-66
2023/10/12 05:10:48;;;;;;;23.00;17.95;;;;;;;15.51;100.00;101128.28;5113387;28;20027;-66
2023/10/12 05:13:19;;;;;;;20.95;18.55;;;;;;;15.45;100.00;101130.47;5109866;28;20040;-66
2023/10/12 05:15:51;;;;;;;24.73;19.45;;;;;;;15.47;100.00;101145.56;5104459;28;20024;-66
2023/10/12 05:18:23;;;;;;;25.80;19.85;;;;;;;15.46;100.00;101144.72;5113399;28;20024;-66
2023/10/12 05:20:49;;;;;;;25.08;18.80;;;;;;;15.44;100.00;101152.91;5111926;28;20023;-66
2023/10/12 05:23:14;;;;;;;31.27;18.73;;;;;;;15.44;100.00;101149.34;5111365;28;20027;-66
2023/10/12 05:28:31;;;;;;;22.83;18.55;;;;;;;15.53;100.00;101131.69;5077091;28;20106;-66
2023/10/12 05:36:11;;;;;;;27.30;17.73;;;;;;;15.43;100.00;101150.31;5104079;28;20044;-66
2023/10/12 05:38:49;;;;;;;24.42;17.27;;;;;;;15.46;100.00;101152.75;5103837;28;20031;-65
2023/10/12 05:41:34;;;;;;;24.35;17.05;;;;;;;15.44;100.00;101143.97;5103941;28;20076;-66
2023/10/12 05:44:08;;;;;;;23.50;18.25;;;;;;;15.38;100.00;101142.66;5105354;28;20364;-66
2023/10/12 05:46:37;;;;;;;22.10;17.65;;;;;;;15.44;100.00;101147.53;5093543;28;20026;-66
2023/10/12 05:49:13;;;;;;;23.58;17.77;;;;;;;15.37;100.00;101151.66;5105288;28;20059;-66
2023/10/12 05:51:45;;;;;;;23.30;17.20;;;;;;;15.36;100.00;101162.50;5090881;28;20027;-66
2023/10/12 05:54:15;;;;;;;19.95;16.80;;;;;;;15.39;100.00;101162.28;5080350;28;20123;-66
2023/10/12 05:56:41;;;;;;;23.80;16.90;;;;;;;15.29;100.00;101162.13;5085799;28;20182;-66
2023/10/12 05:59:12;;;;;;;24.17;17.52;;;;;;;15.40;100.00;101169.31;5100246;28;20176;-66
2023/10/12 06:01:48;;;;;;;22.25;17.10;;;;;;;15.42;100.00;101178.13;5099209;28;20133;-66
2023/10/12 06:04:15;;;;;;;19.90;17.63;;;;;;;15.39;100.00;101173.84;5095646;28;20044;-66
2023/10/12 06:06:43;;;;;;;24.65;17.40;;;;;;;15.39;100.00;101178.34;5103206;28;20020;-65
2023/10/12 06:09:13;;;;;;;20.77;17.48;;;;;;;15.39;100.00;101173.84;5110074;28;20027;-67
2023/10/12 06:11:43;;;;;;;;;;;;;;;15.54;100.00;101174.47;5114667;28;20027;-66
2023/10/12 06:14:09;;;;;;;23.33;16.75;;;;;;;15.45;100.00;101183.22;5096371;28;19939;-66
2023/10/12 06:16:41;;;;;;;21.83;16.80;;;;;;;15.39;100.00;101179.19;5113738;28;20368;-66
2023/10/12 06:19:22;;;;;;;23.90;18.30;;;;;;;15.36;100.00;101175.91;5110186;28;20115;-66
2023/10/12 06:21:50;;;;;;;23.55;17.20;;;;;;;15.33;100.00;101181.50;5057409;28;20020;-66
2023/10/12 06:24:41;;;;;;;27.13;17.40;;;;;;;15.35;100.00;101185.78;5073205;28;20029;-66
2023/10/12 06:29:48;;;;;;;25.45;16.52;;;;;;;15.36;100.00;101190.16;5114289;28;20462;-66
2023/10/12 06:32:25;;;;;;;23.55;16.95;;;;;;;15.38;100.00;101196.28;5097992;28;20103;-65
2023/10/12 06:37:49;;;;;;;23.20;17.15;;;;;;;15.32;100.00;101182.47;5102917;28;20046;-66
2023/10/12 06:43:57;;;;;;;24.25;18.50;;;;;;;15.31;100.00;101188.81;5073773;28;20036;-66
2023/10/12 06:45:54;;;;;;;24.55;18.10;;;;;;;15.38;100.00;101184.66;5091535;28;20110;-66
2023/10/12 06:51:06;;;;;;;26.85;17.33;;;;;;;15.43;100.00;101201.25;5113250;28;20057;-66
2023/10/12 06:53:36;;;;;;;22.27;17.70;;;;;;;15.35;100.00;101204.56;5095283;28;20498;-65
2023/10/12 06:56:27;;;;;;;25.42;17.38;;;;;;;15.35;100.00;101209.03;5112967;28;20039;-66
2023/10/12 07:04:15;;;;;;;24.73;17.67;;;;;;;15.30;100.00;101212.09;5113178;28;20043;-66
2023/10/12 07:06:56;;;;;;;26.10;18.17;;;;;;;15.38;100.00;101220.41;5092350;28;20103;-66
2023/10/12 07:09:27;;;;;;;22.58;17.67;;;;;;;15.32;100.00;101218.16;5084863;28;20031;-66
2023/10/12 07:11:53;;;;;;;21.60;17.58;;;;;;;15.31;100.00;101213.78;5079380;28;20028;-65
2023/10/12 07:14:30;;;;;;;24.00;17.83;;;;;;;15.30;100.00;101221.94;5089398;28;20034;-66
2023/10/12 07:16:56;;;;;;;26.77;18.80;;;;;;;15.33;100.00;101217.19;5103815;28;20031;-66
2023/10/12 07:19:24;;;;;;;26.98;18.10;;;;;;;15.33;100.00;101227.94;5066727;28;20049;-65
2023/10/12 07:21:55;;;;;;;22.92;17.63;;;;;;;15.31;100.00;101224.50;5092637;28;20479;-65
2023/10/12 07:24:23;;;;;;;23.10;17.55;;;;;;;15.39;100.00;101221.25;5099890;28;20080;-66
2023/10/12 07:26:51;;;;;;;30.55;17.75;;;;;;;15.37;100.00;101234.75;5081273;28;20039;-66
2023/10/12 07:29:35;;;;;;;24.27;17.33;;;;;;;15.43;100.00;101238.78;5079257;28;20549;-66
2023/10/12 07:34:54;;;;;;;27.88;17.40;;;;;;;15.44;100.00;101245.84;5086855;28;20084;-66
2023/10/12 07:37:20;;;;;;;20.27;16.75;;;;;;;15.46;100.00;101243.91;5094723;28;20072;-66
2023/10/12 07:39:50;;;;;;;20.55;17.17;;;;;;;15.49;100.00;101249.03;5075269;28;20019;-66
2023/10/12 07:42:31;;;;;;;;;;;;;;;15.69;100.00;101247.50;5107286;28;20103;-65
2023/10/12 07:44:59;;;;;;;22.08;16.67;;;;;;;15.40;100.00;101237.19;5092069;28;19923;-66
2023/10/12 07:47:46;;;;;;;22.98;17.77;;;;;;;15.48;100.00;101246.47;5090437;28;20020;-66
2023/10/12 07:50:15;;;;;;;25.63;17.45;;;;;;;15.45;100.00;101231.47;5099140;28;20076;-66
2023/10/12 07:52:46;;;;;;;;;;;;;;;15.58;100.00;101240.25;5066969;28;20016;-66
2023/10/12 07:55:17;;;;;;;23.67;17.10;;;;;;;15.51;100.00;101241.72;5091347;28;19920;-66
2023/10/12 07:57:43;;;;;;;26.08;18.33;;;;;;;15.48;100.00;101247.34;5093606;28;20043;-66
2023/10/12 08:06:07;;;;;;;23.95;16.23;;;;;;;15.51;100.00;101240.88;5092328;28;20051;-66
2023/10/12 08:13:48;;;;;;;26.25;17.20;;;;;;;15.50;100.00;101240.03;5091245;28;20043;-66
2023/10/12 08:16:03;;;;;;;22.52;17.13;;;;;;;15.53;100.00;101234.44;5102263;28;20380;-65
2023/10/12 08:24:09;;;;;;;23.10;17.43;;;;;;;15.66;100.00;101242.34;5086708;28;20049;-66
2023/10/12 08:29:59;;;;;;;24.92;17.23;;;;;;;15.75;100.00;101243.50;5071506;28;20108;-66
2023/10/12 08:39:37;;;;;;;24.60;17.73;;;;;;;15.97;100.00;101242.66;5071094;28;20040;-65
2023/10/12 08:44:58;;;;;;;23.42;16.52;;;;;;;16.00;100.00;101227.19;5091619;28;20106;-65
2023/10/12 08:47:44;;;;;;;21.42;16.55;;;;;;;16.09;100.00;101252.44;5104716;28;20024;-66
2023/10/12 08:52:50;;;;;;;21.45;15.55;;;;;;;16.11;100.00;101255.81;5091675;28;20160;-66
2023/10/12 08:55:24;;;;;;;22.52;16.10;;;;;;;16.18;100.00;101269.59;5111607;28;20108;-66
2023/10/12 08:58:02;;;;;;;17.83;15.10;;;;;;;16.18;100.00;101274.97;5111666;28;20080;-66
2023/10/12 09:05:54;;;;;;;22.60;15.52;;;;;;;16.19;100.00;101268.63;5090129;28;20031;-66
2023/10/12 09:13:17;;;;;;;21.13;16.45;;;;;;;16.16;100.00;101264.38;5079984;28;20042;-66
2023/10/12 09:15:46;;;;;;;20.95;15.68;;;;;;;16.22;100.00;101271.06;5081083;28;20046;-66
2023/10/12 09:18:18;;;;;;;23.17;17.17;;;;;;;16.19;100.00;101274.00;5090042;28;20032;-66
2023/10/12 09:23:58;;;;;;;19.65;16.23;;;;;;;16.21;100.00;101277.44;5087391;28;20028;-66
2023/10/12 09:26:30;;;;;;;24.17;16.90;;;;;;;16.23;100.00;101279.00;5091756;28;20032;-66
2023/10/12 09:36:55;;;;;;;22.23;16.23;;;;;;;16.27;100.00;101271.56;5094481;28;20383;-65
2023/10/12 09:39:26;;;;;;;25.30;16.67;;;;;;;16.29;100.00;101254.34;5076001;28;20032;-66
2023/10/12 09:42:09;;;;;;;20.50;15.27;;;;;;;16.32;100.00;101263.97;5074579;28;20281;-66
2023/10/12 09:44:39;;;;;;;19.30;16.65;;;;;;;16.26;100.00;101268.00;5094524;28;20024;-66
2023/10/12 09:47:12;;;;;;;20.73;15.63;;;;;;;16.26;100.00;101264.47;5103700;28;20020;-65
2023/10/12 09:49:46;;;;;;;21.52;17.17;;;;;;;16.26;100.00;101264.47;5079093;28;20505;-65
2023/10/12 09:52:13;;;;;;;21.58;16.50;;;;;;;16.31;100.00;101260.44;5065747;28;20028;-65
2023/10/12 09:54:52;;;;;;;21.55;16.85;;;;;;;16.31;100.00;101265.81;5077908;28;20028;-65
2023/10/12 09:57:23;;;;;;;20.98;15.77;;;;;;;16.31;100.00;101262.28;5096199;28;20059;-65
2023/10/12 09:59:53;;;;;;;20.08;16.67;;;;;;;16.39;100.00;101253.63;5105854;28;20031;-65
2023/10/12 10:02:33;;;;;;;17.98;16.02;;;;;;;16.40;100.00;101253.47;5074259;28;20024;-65
2023/10/12 10:05:27;;;;;;;20.02;16.95;;;;;;;16.39;100.00;101257.16;5043042;28;20021;-65
2023/10/12 10:08:04;;;;;;;23.30;16.25;;;;;;;16.37;100.00;101252.88;5079049;28;20511;-65
2023/10/12 10:10:31;;;;;;;21.70;16.40;;;;;;;16.39;100.00;101256.31;5094220;28;20035;-65
2023/10/12 10:13:01;;;;;;;19.75;17.13;;;;;;;16.32;100.00;101256.81;5109547;28;20023;-65
2023/10/12 10:15:44;;;;;;;21.42;16.58;;;;;;;16.36;100.00;101262.78;5095655;28;20027;-65
2023/10/12 10:18:16;;;;;;;27.48;17.63;;;;;;;16.43;100.00;101249.69;5104858;28;20028;-65
2023/10/12 10:20:58;;;;;;;22.55;17.02;;;;;;;16.42;100.00;101248.84;5114389;28;20035;-66
2023/10/12 10:23:24;;;;;;;23.05;16.38;;;;;;;16.41;100.00;101247.13;5114226;28;20023;-66
2023/10/12 10:25:56;;;;;;;22.83;15.95;;;;;;;16.46;100.00;101242.22;5093672;28;20494;-66
2023/10/12 10:28:32;;;;;;;20.55;16.13;;;;;;;16.50;100.00;101232.97;5080329;28;20024;-66
2023/10/12 10:30:59;;;;;;;21.73;17.08;;;;;;;16.53;100.00;101235.41;5100097;28;20028;-66
2023/10/12 10:33:26;;;;;;;20.70;14.98;;;;;;;16.49;100.00;101233.94;5081710;28;20028;-66
2023/10/12 10:35:57;;;;;;;22.05;15.80;;;;;;;16.58;100.00;101232.31;5089321;28;20422;-66
2023/10/12 10:38:33;;;;;;;26.15;16.23;;;;;;;16.55;100.00;101209.25;5071616;28;20036;-66
2023/10/12 10:41:06;;;;;;;22.42;15.82;;;;;;;16.68;100.00;101225.22;5086229;28;20070;-65
2023/10/12 10:43:37;;;;;;;22.92;16.50;;;;;;;16.70;100.00;101215.19;5095467;28;20020;-66
2023/10/12 10:46:06;;;;;;;20.92;15.77;;;;;;;16.72;100.00;101221.28;5091299;28;20062;-65
2023/10/12 10:48:34;;;;;;;;;;;;;;;16.89;100.00;101222.63;5084604;28;20027;-65
2023/10/12 10:51:07;;;;;;;25.13;15.52;;;;;;;16.78;100.00;101206.53;5093144;28;19911;-65
2023/10/12 10:53:36;;;;;;;20.42;15.88;;;;;;;16.93;100.00;101210.63;5104136;28;20031;-65
2023/10/12 10:56:15;;;;;;;20.13;15.52;;;;;;;16.95;100.00;101221.25;5076584;28;20028;-64
2023/10/12 10:58:45;;;;;;;22.45;15.40;;;;;;;16.99;100.00;101211.94;5088998;28;20487;-65
2023/10/12 11:01:14;;;;;;;22.58;15.48;;;;;;;16.97;100.00;101225.50;5110695;28;20057;-66
2023/10/12 11:03:42;;;;;;;21.63;15.52;;;;;;;16.90;100.00;101210.03;5078169;28;20059;-66
2023/10/12 11:06:21;;;;;;;20.27;15.80;;;;;;;16.86;100.00;101230.94;5105745;28;20499;-66
2023/10/12 11:09:02;;;;;;;20.85;16.23;;;;;;;16.92;100.00;101218.81;5081794;28;20104;-66
2023/10/12 11:11:37;;;;;;;23.48;16.88;;;;;;;16.94;100.00;101215.03;5083261;28;20443;-65
2023/10/12 11:14:08;;;;;;;21.30;15.57;;;;;;;16.95;100.00;101202.44;5086212;28;20436;-66
2023/10/12 11:16:36;;;;;;;26.40;17.40;;;;;;;17.03;100.00;101200.81;5091740;28;20111;-65
2023/10/12 11:19:03;;;;;;;21.40;16.80;;;;;;;17.05;100.00;101203.34;5091334;28;20055;-66
2023/10/12 11:21:31;;;;;;;20.52;15.38;;;;;;;17.08;100.00;101210.31;5092460;28;20038;-65
2023/10/12 11:24:01;;;;;;;20.30;15.65;;;;;;;17.02;100.00;101209.00;5092232;28;20153;-65
2023/10/12 11:26:27;;;;;;;18.83;14.43;;;;;;;17.01;100.00;101208.13;5067062;28;20024;-66
2023/10/12 11:29:04;;;;;;;23.30;14.77;;;;;;;17.02;100.00;101212.53;5091288;28;20101;-66
2023/10/12 11:31:30;;;;;;;23.65;14.63;;;;;;;17.01;100.00;101212.66;5092390;28;20390;-65
2023/10/12 11:33:56;;;;;;;23.25;14.18;;;;;;;16.97;100.00;101209.41;5090696;28;20422;-66
2023/10/12 11:36:25;;;;;;;20.92;15.02;;;;;;;16.97;100.00;101209.41;5091022;28;20028;-66
2023/10/12 11:39:02;;;;;;;18.83;14.40;;;;;;;16.93;100.00;101185.59;5074048;28;20031;-66
2023/10/12 11:41:28;;;;;;;22.20;14.25;;;;;;;16.99;100.00;101202.03;5078386;28;20502;-66
2023/10/12 11:43:57;;;;;;;23.73;16.15;;;;;;;17.02;100.00;101206.31;5091280;28;20032;-66
2023/10/12 11:46:24;;;;;;;19.48;13.73;;;;;;;17.01;100.00;101197.38;5094394;28;20379;-65
2023/10/12 11:49:04;;;;;;;20.75;12.65;;;;;;;17.05;100.00;101197.97;5073399;28;20053;-66
2023/10/12 11:51:29;;;;;;;22.50;12.13;;;;;;;17.07;100.00;101189.78;5089019;28;20039;-65
2023/10/12 11:53:55;;;;;;;15.93;11.90;;;;;;;17.06;100.00;101190.75;5092275;28;20474;-66
2023/10/12 11:56:24;;;;;;;22.80;12.02;;;;;;;17.02;100.00;101187.50;5112046;28;20216;-65
2023/10/12 11:58:59;;;;;;;15.40;11.45;;;;;;;17.00;100.00;101184.94;5112747;28;20024;-65
2023/10/12 12:01:37;;;;;;;16.10;11.43;;;;;;;17.00;100.00;101189.44;5094847;28;20032;-66
2023/10/12 12:04:04;;;;;;;15.98;11.18;;;;;;;16.94;100.00;101187.28;5064181;28;20515;-66
2023/10/12 12:06:32;;;;;;;18.02;11.88;;;;;;;16.94;100.00;101187.28;5102807;28;20071;-66
2023/10/12 12:08:59;;;;;;;16.58;11.30;;;;;;;16.89;100.00;101182.31;5089405;28;20024;-65
2023/10/12 12:11:31;;;;;;;21.27;11.30;;;;;;;16.91;100.00;101188.41;5086459;28;20028;-66
2023/10/12 12:13:57;;;;;;;16.85;11.77;;;;;;;16.86;100.00;101182.56;5088492;28;20028;-66
2023/10/12 12:16:22;;;;;;;19.42;12.27;;;;;;;16.85;100.00;101178.16;5088675;28;20031;-66
2023/10/12 12:18:50;;;;;;;14.32;11.18;;;;;;;16.80;100.00;101178.56;5085268;28;20038;-66
2023/10/12 12:21:17;;;;;;;17.10;12.02;;;;;;;16.77;100.00;101159.16;5081026;28;20482;-66
2023/10/12 12:23:48;;;;;;;18.10;11.55;;;;;;;16.76;100.00;101171.72;5100267;28;20080;-66
2023/10/12 12:26:18;;;;;;;19.80;11.57;;;;;;;16.71;100.00;101155.13;5104455;28;20162;-66
2023/10/12 12:28:44;;;;;;;18.25;12.35;;;;;;;16.69;100.00;101146.34;5096649;28;20111;-66
2023/10/12 12:31:13;;;;;;;17.42;11.88;;;;;;;16.67;100.00;101150.13;5073144;28;20024;-65
2023/10/12 12:33:43;;;;;;;18.02;11.38;;;;;;;16.65;100.00;101152.97;5079861;28;20039;-66
2023/10/12 12:36:22;;;;;;;21.15;12.10;;;;;;;16.67;100.00;101152.81;5095391;28;20043;-66
2023/10/12 12:38:52;;;;;;;15.93;11.63;;;;;;;16.66;100.00;101151.13;5072802;28;20501;-66
2023/10/12 12:41:23;;;;;;;;;;;;;;;16.75;100.00;101124.34;5096381;28;20035;-66
2023/10/12 12:43:49;;;;;;;17.90;12.20;;;;;;;16.60;100.00;101127.47;5091063;28;20336;-65
2023/10/12 12:46:16;;;;;;;19.90;12.20;;;;;;;16.55;100.00;101131.38;5081058;28;20024;-66
2023/10/12 12:48:45;;;;;;;16.95;12.40;;;;;;;16.50;100.00;101122.88;5101213;28;20034;-66
2023/10/12 12:51:18;;;;;;;18.10;12.65;;;;;;;16.54;100.00;101139.56;5109272;28;20487;-66
2023/10/12 12:53:47;;;;;;;19.00;13.75;;;;;;;16.54;100.00;101135.06;5092399;28;20474;-65
2023/10/12 12:56:17;;;;;;;16.88;12.98;;;;;;;16.54;100.00;101140.44;5092802;28;20490;-65
2023/10/12 12:58:51;;;;;;;15.93;12.70;;;;;;;16.60;100.00;101140.91;5093686;28;20054;-65
2023/10/12 13:01:24;;;;;;;21.88;14.45;;;;;;;16.57;100.00;101144.69;5094249;28;20115;-66
2023/10/12 13:03:54;;;;;;;17.65;12.70;;;;;;;16.51;100.00;101132.63;5094184;28;20078;-66
2023/10/12 13:06:19;;;;;;;20.23;14.27;;;;;;;16.51;100.00;101137.16;5075590;28;20032;-66
2023/10/12 13:08:45;;;;;;;20.42;14.00;;;;;;;16.55;100.00;101139.44;5068969;28;20437;-66
2023/10/12 13:11:11;;;;;;;18.85;14.05;;;;;;;16.56;100.00;101146.53;5062768;28;20032;-66
2023/10/12 13:13:39;;;;;;;18.15;13.23;;;;;;;16.51;100.00;101140.69;5071643;28;20479;-66
2023/10/12 13:16:12;;;;;;;20.50;13.55;;;;;;;16.54;100.00;101145.78;5076521;28;20036;-66
2023/10/12 13:18:38;;;;;;;21.10;13.68;;;;;;;16.47;100.00;101125.81;5068896;28;20029;-65
2023/10/12 13:21:14;;;;;;;18.70;14.40;;;;;;;16.57;100.00;101139.31;5084577;28;20031;-65
2023/10/12 13:23:41;;;;;;;17.15;14.27;;;;;;;16.56;100.00;101138.47;5074338;28;20035;-66
2023/10/12 13:26:12;;;;;;;18.85;13.55;;;;;;;16.65;100.00;101144.03;5077165;28;20027;-65
2023/10/12 13:28:44;;;;;;;19.42;14.27;;;;;;;16.67;100.00;101136.69;5090661;28;20066;-65